Flight Track Log - Related Links

Times and Time Zones

All times are in EDT time to prevent confusion due to time zone crossing. See the AAL1811 flight status page for this flight to view local times or setup timezone preferences in your user account.

Time Position Orientation Groundspeed Altitude Reporting Facility
EDT Latitude Longitude Course Direction KTS MPH feet Rate Location/Type
Sat 04:05:15 PM 30.1653 -97.6850 323° Northwest 158 182 2,500  Level Houston Center
Sat 04:06:16 PM 30.1594 -97.7583 265° West 248 285 5,300 3,122 Climbing Houston Center
Sat 04:07:00 PM 30.3871 -97.5310 329° Northwest  Level FlightAware Approximate
Sat 04:07:18 PM 30.2067 -97.8364 305° West 286 329 8,900  Level Houston Center
Sat 04:08:00 PM 30.4582 -97.5807 329° Northwest  Level FlightAware Approximate
Sat 04:08:20 PM 30.2747 -97.8936 324° Northwest 311 358 12,000  Level Houston Center
Sat 04:09:00 PM 30.5293 -97.6305 329° Northwest  Level FlightAware Approximate
Sat 04:09:21 PM 30.3683 -97.9192 347° North 344 396 14,700  Level Houston Center
Sat 04:10:00 PM 30.6002 -97.6918 323° Northwest  Level FlightAware Approximate
Sat 04:10:23 PM 30.4658 -97.9447 347° North 353 406 17,500  Level Houston Center
Sat 04:11:25 PM 30.5719 -97.9750 346° North 377 434 19,000 1,854 Climbing Houston Center
Sat 04:12:26 PM 30.6897 -98.0069 347° North 419 482 21,300 1,951 Climbing Houston Center
Sat 04:13:28 PM 30.8072 -98.0397 347° North 427 491 23,000 823 Climbing Houston Center
Sat 04:14:30 PM 30.9264 -98.0722 347° North 430 495 23,000  Level Houston Center
Sat 04:15:31 PM 31.0444 -98.1053 347° North 430 495 23,000  Level Houston Center
Sat 04:16:33 PM 31.1647 -98.1369 347° North 435 501 23,000  Level Houston Center
Sat 04:17:31 PM 31.2864 -98.1014 14° North 418 481 23,000  Level Fort Worth Center
Sat 04:18:31 PM 31.3994 -98.0486 22° Northeast 423 487 23,000  Level Fort Worth Center
Sat 04:19:30 PM 31.5106 -97.9908 24° Northeast 435 501 23,000  Level Fort Worth Center
Sat 04:20:31 PM 31.6214 -97.9356 23° Northeast 436 502 23,000  Level Fort Worth Center
Sat 04:21:31 PM 31.7344 -97.8800 23° Northeast 436 502 23,000 -700 Level Fort Worth Center
Sat 04:22:31 PM 31.8453 -97.8242 23° Northeast 441 507 21,600 -2,050 Descending Fort Worth Center
Sat 04:23:31 PM 31.9539 -97.7683 24° Northeast 428 493 18,900 -2,550 Descending Fort Worth Center
Sat 04:24:31 PM 32.0542 -97.7197 22° Northeast 407 468 16,500 -2,420 Descending Fort Worth Center
Sat 04:25:30 PM 32.1442 -97.6733 24° Northeast 387 445 14,100 -2,400 Descending Fort Worth Center
Sat 04:26:31 PM 32.2550 -97.6172 23° Northeast 387 445 11,700 -1,537 Descending Fort Worth Center
Sat 04:27:31 PM 32.3447 -97.5733 22° Northeast 387 445 11,000 -353 Descending Fort Worth Center
Sat 04:28:30 PM 32.4533 -97.5167 24° Northeast 382 440 11,000  Level Fort Worth Center
Sat 04:29:31 PM 32.5244 -97.4406 42° Northeast 375 432 11,000  Level Fort Worth Center
Sat 04:30:30 PM 32.6058 -97.3419 46° Northeast 380 437 11,000  Level Fort Worth Center
Sat 04:31:03 PM 32.6500 -97.2833 48° Northeast 382 440 11,000 -65 Level Dallas / Fort Worth TRACON
Sat 04:32:03 PM 32.7167 -97.2167 40° Northeast 299 344 10,900  Descending Dallas / Fort Worth TRACON
Sat 04:33:09 PM 32.7833 -97.1667 32° Northeast 264 304 11,000 -524 Climbing Dallas / Fort Worth TRACON
Sat 04:34:09 PM 32.8667 -97.1667 360° North 271 312 9,800 -1,143 Descending Dallas / Fort Worth TRACON
Sat 04:35:15 PM 32.9333 -97.1667 360° North 242 278 8,600 -1,263 Descending Dallas / Fort Worth TRACON
Sat 04:36:03 PM 32.9833 -97.1667 360° North 241 277 7,400 -1,421 Descending Dallas / Fort Worth TRACON
Sat 04:37:09 PM 33.0667 -97.1667 360° North 231 266 5,900 -1,286 Descending Dallas / Fort Worth TRACON
Sat 04:38:09 PM 33.1000 -97.1500 23° Northeast 198 228 4,700 -1,263 Descending Dallas / Fort Worth TRACON
Sat 04:39:03 PM 33.1167 -97.0833 73° East 178 205 3,500 -895 Descending Dallas / Fort Worth TRACON
Sat 04:40:03 PM 33.0833 -97.0500 140° Southeast 163 188 3,000 -500 Descending Dallas / Fort Worth TRACON

Login

Don't have an account? Register now (free) for customized features, flight alerts, and more!